Time;durP1;ratioP1;P1;durP2;ratioP2;P2;SDS_P1;SDS_P2;PMS_P1;PMS_P2;Temp;Humidity;BMP_temperature;BMP_pressure;BME280_temperature;BME280_humidity;BME280_pressure;Samples;Min_cycle;Max_cycle;Signal;HPM_P1;HPM_P2
2023/01/20 00:00:31;;;;;;;3.93;3.47;;;;;-2.30;95190.00;;;;5013858;28;20240;-59
2023/01/20 00:02:59;;;;;;;3.23;2.93;;;;;-2.30;95192.00;;;;5013454;28;20220;-59
2023/01/20 00:05:26;;;;;;;3.07;1.93;;;;;-2.40;95190.00;;;;5013483;28;20193;-59
2023/01/20 00:07:53;;;;;;;2.00;1.87;;;;;-2.40;95190.00;;;;5013402;28;20255;-59
2023/01/20 00:10:22;;;;;;;5.20;3.77;;;;;-2.50;95190.00;;;;5013649;28;20660;-59
2023/01/20 00:12:49;;;;;;;3.30;3.00;;;;;-2.50;95189.00;;;;5013140;28;20276;-59
2023/01/20 00:15:17;;;;;;;3.03;2.53;;;;;-2.40;95188.00;;;;5013220;28;20220;-59
2023/01/20 00:17:44;;;;;;;3.10;1.73;;;;;-2.40;95196.00;;;;5013587;28;20704;-59
2023/01/20 00:20:13;;;;;;;2.67;2.47;;;;;-2.40;95193.00;;;;5013427;28;20197;-58
2023/01/20 00:22:41;;;;;;;4.23;2.63;;;;;-2.50;95190.00;;;;5013129;28;20283;-59
2023/01/20 00:25:09;;;;;;;2.33;2.20;;;;;-2.60;95196.00;;;;5013468;28;20231;-58
2023/01/20 00:27:38;;;;;;;2.47;2.27;;;;;-2.50;95209.00;;;;5013289;28;20276;-59
2023/01/20 00:30:07;;;;;;;1.57;1.47;;;;;-2.50;95197.00;;;;5013226;28;20201;-59
2023/01/20 00:32:38;;;;;;;1.53;1.43;;;;;-2.40;95196.00;;;;5015047;28;20577;-59
2023/01/20 00:35:06;;;;;;;5.70;2.13;;;;;-2.40;95213.00;;;;5017154;28;20683;-59
2023/01/20 00:37:34;;;;;;;2.40;2.20;;;;;-2.40;95219.00;;;;5017300;28;20201;-59
2023/01/20 00:40:01;;;;;;;2.17;2.07;;;;;-2.30;95209.00;;;;5017468;28;20598;-59
2023/01/20 00:42:28;;;;;;;2.87;2.67;;;;;-2.40;95215.00;;;;5017039;28;20220;-58
2023/01/20 00:44:57;;;;;;;2.13;2.03;;;;;-2.40;95213.00;;;;4999329;28;20212;-59
2023/01/20 00:47:24;;;;;;;2.20;2.10;;;;;-2.40;95216.00;;;;5016949;28;20252;-59
2023/01/20 00:49:52;;;;;;;1.97;1.87;;;;;-2.40;95223.00;;;;5016903;28;20676;-59
2023/01/20 00:52:19;;;;;;;4.73;3.23;;;;;-2.50;95219.00;;;;5016998;28;20244;-59
2023/01/20 00:54:46;;;;;;;2.97;2.33;;;;;-2.50;95216.00;;;;5017220;28;20311;-59
2023/01/20 00:57:14;;;;;;;2.23;2.10;;;;;-2.50;95225.00;;;;5016810;28;20240;-59
2023/01/20 00:59:41;;;;;;;2.30;2.10;;;;;-2.40;95225.00;;;;5016712;28;20193;-59
2023/01/20 01:02:10;;;;;;;1.80;1.70;;;;;-2.40;95225.00;;;;5016822;28;20209;-59
2023/01/20 01:04:37;;;;;;;2.07;1.97;;;;;-2.40;95222.00;;;;4998996;28;20202;-59
2023/01/20 01:07:04;;;;;;;1.83;1.73;;;;;-2.40;95230.00;;;;5016658;28;20205;-58
2023/01/20 01:09:32;;;;;;;2.97;2.77;;;;;-2.30;95222.00;;;;5016599;28;20252;-59
2023/01/20 01:11:59;;;;;;;2.07;1.97;;;;;-2.30;95233.00;;;;5016545;28;20586;-59
2023/01/20 01:14:27;;;;;;;2.07;1.87;;;;;-2.20;95245.00;;;;5016748;28;20189;-59
2023/01/20 01:16:54;;;;;;;3.90;2.27;;;;;-2.20;95236.00;;;;5016513;28;20189;-58
2023/01/20 01:19:23;;;;;;;3.40;2.83;;;;;-2.20;95245.00;;;;5016882;28;20603;-59
2023/01/20 01:21:50;;;;;;;2.27;2.17;;;;;-2.10;95242.00;;;;5016435;28;20228;-59
2023/01/20 01:24:17;;;;;;;6.07;2.27;;;;;-2.20;95242.00;;;;5016905;28;20248;-58
2023/01/20 01:26:45;;;;;;;1.73;1.63;;;;;-2.30;95253.00;;;;5016299;28;20251;-59
2023/01/20 01:29:12;;;;;;;1.20;1.20;;;;;-2.50;95263.00;;;;5016544;28;20205;-58
2023/01/20 01:31:39;;;;;;;2.37;2.17;;;;;-2.80;95265.00;;;;5016195;28;20217;-59
2023/01/20 01:34:07;;;;;;;2.13;1.93;;;;;-2.70;95252.00;;;;4998462;28;20652;-58
2023/01/20 01:36:35;;;;;;;1.67;1.57;;;;;-2.70;95255.00;;;;5016058;28;20224;-59
2023/01/20 01:39:03;;;;;;;2.30;2.07;;;;;-2.60;95265.00;;;;5016155;28;20200;-59
2023/01/20 01:41:31;;;;;;;6.03;3.13;;;;;-2.50;95271.00;;;;5016055;28;20661;-58
2023/01/20 01:44:04;;;;;;;2.03;1.93;;;;;-2.50;95269.00;;;;5016130;28;20197;-58
2023/01/20 01:46:32;;;;;;;2.13;1.87;;;;;-2.50;95277.00;;;;5016413;28;20191;-59
2023/01/20 01:49:03;;;;;;;3.80;3.37;;;;;-2.50;95266.00;;;;5015902;28;20196;-59
2023/01/20 01:51:38;;;;;;;1.67;1.57;;;;;-2.50;95274.00;;;;5016408;28;20186;-58
2023/01/20 01:54:09;;;;;;;1.97;1.83;;;;;-2.50;95278.00;;;;5015876;28;20185;-59
2023/01/20 01:56:38;;;;;;;1.83;1.73;;;;;-2.50;95274.00;;;;5015967;28;20201;-59
2023/01/20 01:59:05;;;;;;;2.30;2.10;;;;;-2.50;95278.00;;;;5015731;28;20190;-58
2023/01/20 02:01:36;;;;;;;5.43;2.33;;;;;-2.60;95274.00;;;;5015664;28;20197;-59
2023/01/20 02:04:09;;;;;;;2.67;1.90;;;;;-2.60;95282.00;;;;4998078;28;20194;-59
2023/01/20 02:06:42;;;;;;;4.40;3.03;;;;;-2.50;95279.00;;;;5015563;28;20181;-59
2023/01/20 02:09:09;;;;;;;1.73;1.63;;;;;-2.50;95282.00;;;;5015924;28;20251;-59
2023/01/20 02:11:40;;;;;;;1.73;1.63;;;;;-2.50;95278.00;;;;5015305;28;20197;-59
2023/01/20 02:14:08;;;;;;;1.87;1.77;;;;;-2.50;95282.00;;;;5050800;22;20241;-59
2023/01/20 02:16:48;;;;;;;1.87;1.77;;;;;-2.50;95282.00;;;;5035197;28;20622;-59
2023/01/20 02:19:42;;;;;;;2.17;1.97;;;;;-2.50;95286.00;;;;5035488;28;20183;-59
2023/01/20 02:22:20;;;;;;;1.60;1.50;;;;;-2.60;95295.00;;;;5035474;28;20246;-59
2023/01/20 02:25:13;;;;;;;1.67;1.57;;;;;-2.60;95291.00;;;;5035331;28;20574;-59
2023/01/20 02:27:59;;;;;;;1.83;1.73;;;;;-2.60;95296.00;;;;5014487;28;20271;-60
2023/01/20 02:30:47;;;;;;;2.77;2.60;;;;;-2.70;95304.00;;;;5035162;28;20193;-60
2023/01/20 02:33:20;;;;;;;1.67;1.57;;;;;-2.80;95290.00;;;;5035401;28;20223;-58
2023/01/20 02:35:53;;;;;;;2.67;2.47;;;;;-2.80;95298.00;;;;5035107;28;20668;-59
2023/01/20 02:38:31;;;;;;;2.73;2.60;;;;;-2.90;95298.00;;;;5034815;28;20237;-59
2023/01/20 02:41:06;;;;;;;2.20;2.10;;;;;-3.00;95309.00;;;;5034813;28;20307;-60
2023/01/20 02:43:38;;;;;;;3.03;2.67;;;;;-3.00;95305.00;;;;5035237;28;20214;-60
2023/01/20 02:46:12;;;;;;;4.90;2.43;;;;;-3.00;95311.00;;;;5034892;28;20184;-60
2023/01/20 02:48:46;;;;;;;3.37;2.40;;;;;-2.90;95314.00;;;;5035211;28;20184;-60
2023/01/20 02:51:17;;;;;;;2.30;2.10;;;;;-3.00;95325.00;;;;5034882;28;20183;-59
2023/01/20 02:53:51;;;;;;;1.97;1.80;;;;;-3.00;95320.00;;;;5034481;28;20263;-60
2023/01/20 02:56:23;;;;;;;2.30;1.77;;;;;-3.00;95315.00;;;;5033947;28;20258;-59
2023/01/20 02:58:54;;;;;;;3.70;2.20;;;;;-2.90;95312.00;;;;5034478;28;20180;-59
2023/01/20 03:01:25;;;;;;;2.00;1.40;;;;;-3.00;95318.00;;;;5034717;28;20568;-59
2023/01/20 03:03:58;;;;;;;1.77;1.67;;;;;-2.90;95319.00;;;;5034493;28;20220;-59
2023/01/20 03:06:30;;;;;;;1.27;1.27;;;;;-2.90;95325.00;;;;5034296;28;20181;-59
2023/01/20 03:09:01;;;;;;;1.77;1.50;;;;;-2.90;95329.00;;;;5034462;28;20235;-59
2023/01/20 03:11:30;;;;;;;3.17;2.87;;;;;-3.00;95337.00;;;;5034376;28;20176;-59
2023/01/20 03:14:04;;;;;;;1.77;1.67;;;;;-3.00;95334.00;;;;5034109;28;20228;-59
2023/01/20 03:16:32;;;;;;;2.07;1.87;;;;;-3.00;95337.00;;;;5034258;28;20212;-60
2023/01/20 03:19:01;;;;;;;1.50;1.47;;;;;-3.00;95331.00;;;;5034013;28;20205;-58
2023/01/20 03:21:28;;;;;;;2.63;1.97;;;;;-3.00;95334.00;;;;5034211;28;20203;-59
2023/01/20 03:24:01;;;;;;;2.20;2.10;;;;;-3.00;95334.00;;;;5034012;28;20220;-59
2023/01/20 03:26:29;;;;;;;2.23;2.13;;;;;-3.00;95334.00;;;;5034179;28;20238;-59
2023/01/20 03:28:57;;;;;;;2.50;1.93;;;;;-3.00;95339.00;;;;5016154;28;20203;-60
2023/01/20 03:31:28;;;;;;;1.47;1.23;;;;;-3.00;95350.00;;;;5033830;28;20200;-60
2023/01/20 03:33:59;;;;;;;1.70;1.60;;;;;-3.00;95347.00;;;;5034032;28;20211;-58
2023/01/20 03:36:30;;;;;;;1.37;0.93;;;;;-3.00;95351.00;;;;5033679;28;20208;-60
2023/01/20 03:38:59;;;;;;;1.70;1.60;;;;;-3.00;95346.00;;;;5033748;28;20644;-60
2023/01/20 03:41:34;;;;;;;1.73;1.63;;;;;-3.10;95354.00;;;;5033842;28;20197;-59
2023/01/20 03:44:11;;;;;;;1.87;1.77;;;;;-3.10;95360.00;;;;5033991;28;20221;-58
2023/01/20 03:46:46;;;;;;;2.73;1.77;;;;;-3.10;95351.00;;;;5033650;28;20187;-59
2023/01/20 03:49:23;;;;;;;2.67;2.20;;;;;-3.10;95355.00;;;;5033410;28;20203;-59
2023/01/20 03:52:00;;;;;;;13.83;1.53;;;;;-3.00;95362.00;;;;5015785;28;20578;-60
2023/01/20 03:54:32;;;;;;;1.40;1.30;;;;;-3.10;95359.00;;;;5033480;28;20575;-59
2023/01/20 03:57:04;;;;;;;1.53;1.50;;;;;-3.20;95366.00;;;;5033900;28;20198;-60
2023/01/20 03:59:34;;;;;;;2.10;2.00;;;;;-3.20;95361.00;;;;5015678;28;20666;-60
2023/01/20 04:02:04;;;;;;;2.00;1.90;;;;;-3.30;95373.00;;;;5033409;28;20185;-60
2023/01/20 04:04:35;;;;;;;1.53;1.43;;;;;-3.30;95366.00;;;;5033199;28;20212;-58
2023/01/20 04:07:05;;;;;;;1.73;1.63;;;;;-3.30;95379.00;;;;5032629;28;20513;-60
2023/01/20 04:09:38;;;;;;;2.87;2.60;;;;;-3.40;95369.00;;;;5033242;28;20629;-60
2023/01/20 04:12:06;;;;;;;3.17;2.87;;;;;-3.40;95371.00;;;;5033216;28;20211;-60
2023/01/20 04:14:35;;;;;;;3.13;2.83;;;;;-3.40;95370.00;;;;5032961;28;20252;-60
2023/01/20 04:17:03;;;;;;;2.20;2.10;;;;;-3.50;95377.00;;;;5033044;28;20223;-60
2023/01/20 04:19:31;;;;;;;3.90;3.30;;;;;-3.40;95378.00;;;;5033090;28;20612;-60
2023/01/20 04:22:05;;;;;;;1.93;1.83;;;;;-3.40;95368.00;;;;5033583;28;20203;-59
2023/01/20 04:24:38;;;;;;;1.87;1.77;;;;;-3.30;95385.00;;;;5033723;28;20609;-59
2023/01/20 04:27:06;;;;;;;1.70;1.60;;;;;-3.30;95383.00;;;;5033013;28;20232;-59
2023/01/20 04:29:33;;;;;;;4.50;2.63;;;;;-3.40;95376.00;;;;5033213;28;20201;-60
2023/01/20 04:32:01;;;;;;;2.30;1.83;;;;;-3.40;95375.00;;;;5032962;28;20225;-59
2023/01/20 04:34:29;;;;;;;2.93;2.33;;;;;-3.50;95383.00;;;;5032869;28;20580;-59
2023/01/20 04:36:56;;;;;;;2.07;1.87;;;;;-3.50;95383.00;;;;5032770;28;20272;-59
2023/01/20 04:39:25;;;;;;;2.07;1.97;;;;;-3.50;95389.00;;;;5033372;28;20196;-59
2023/01/20 04:41:53;;;;;;;1.70;1.60;;;;;-3.60;95390.00;;;;5032850;28;20254;-60
2023/01/20 04:44:20;;;;;;;1.77;1.67;;;;;-3.60;95379.00;;;;5032782;28;20712;-59
2023/01/20 04:46:47;;;;;;;2.13;2.03;;;;;-3.50;95379.00;;;;5033024;28;20592;-60
2023/01/20 04:49:15;;;;;;;3.07;2.77;;;;;-3.50;95389.00;;;;5033056;28;20206;-59
2023/01/20 04:51:43;;;;;;;1.60;1.50;;;;;-3.40;95390.00;;;;5032700;28;20678;-59
2023/01/20 04:54:11;;;;;;;2.60;2.40;;;;;-3.30;95393.00;;;;5032965;28;20651;-59
2023/01/20 04:56:39;;;;;;;1.87;1.63;;;;;-3.30;95398.00;;;;5032606;28;20748;-59
2023/01/20 04:59:07;;;;;;;1.60;1.53;;;;;-3.20;95400.00;;;;5033019;28;20203;-60
2023/01/20 05:01:34;;;;;;;2.00;1.87;;;;;-3.20;95407.00;;;;5033140;28;20191;-60
2023/01/20 05:04:02;;;;;;;1.47;1.37;;;;;-3.10;95412.00;;;;5032678;28;20214;-60
2023/01/20 05:06:29;;;;;;;1.50;1.50;;;;;-3.10;95411.00;;;;5032948;28;20192;-60
2023/01/20 05:08:56;;;;;;;2.90;2.13;;;;;-3.20;95419.00;;;;5032637;28;20247;-58
2023/01/20 05:11:24;;;;;;;2.03;1.93;;;;;-3.20;95427.00;;;;5032682;28;20625;-60
2023/01/20 05:13:53;;;;;;;1.73;1.63;;;;;-3.30;95428.00;;;;5032325;28;20280;-59
2023/01/20 05:16:23;;;;;;;8.60;2.40;;;;;-3.30;95438.00;;;;5032497;28;20689;-59
2023/01/20 05:18:51;;;;;;;1.47;1.47;;;;;-3.30;95435.00;;;;5034739;28;20219;-60
2023/01/20 05:21:18;;;;;;;1.80;1.70;;;;;-3.30;95437.00;;;;5036318;28;20256;-59
2023/01/20 05:23:46;;;;;;;3.07;2.73;;;;;-3.30;95441.00;;;;5036100;28;20238;-59
2023/01/20 05:26:13;;;;;;;2.80;2.57;;;;;-3.20;95444.00;;;;5036709;28;20196;-60
2023/01/20 05:28:42;;;;;;;1.13;1.10;;;;;-3.40;95453.00;;;;5036641;28;20382;-59
2023/01/20 05:31:11;;;;;;;2.47;2.20;;;;;-3.50;95442.00;;;;5036042;28;20191;-59
2023/01/20 05:33:38;;;;;;;1.77;1.67;;;;;-3.50;95459.00;;;;5036041;28;20270;-58
2023/01/20 05:36:07;;;;;;;1.20;1.20;;;;;-3.60;95459.00;;;;5036059;28;20193;-61
2023/01/20 05:38:34;;;;;;;1.73;1.63;;;;;-3.60;95464.00;;;;5035958;28;20196;-59
2023/01/20 05:41:02;;;;;;;1.60;1.53;;;;;-3.60;95467.00;;;;5035876;28;20245;-59
2023/01/20 05:43:30;;;;;;;1.93;1.83;;;;;-3.60;95459.00;;;;5035762;28;20217;-59
2023/01/20 05:45:58;;;;;;;3.63;2.30;;;;;-3.50;95459.00;;;;5035977;28;20192;-58
2023/01/20 05:48:26;;;;;;;5.90;3.20;;;;;-3.40;95477.00;;;;5035951;28;20663;-59
2023/01/20 05:50:54;;;;;;;1.70;1.60;;;;;-3.40;95474.00;;;;5036413;28;20287;-58
2023/01/20 05:53:21;;;;;;;2.57;1.87;;;;;-3.40;95469.00;;;;5036025;28;20281;-58
2023/01/20 05:55:49;;;;;;;1.73;1.63;;;;;-3.40;95481.00;;;;5035589;28;20200;-58
2023/01/20 05:58:16;;;;;;;1.70;1.50;;;;;-3.40;95476.00;;;;5035540;28;20691;-62
2023/01/20 06:00:44;;;;;;;1.40;1.37;;;;;-3.40;95480.00;;;;5035510;28;20200;-59
2023/01/20 06:03:11;;;;;;;1.20;1.17;;;;;-3.40;95483.00;;;;5036017;28;20718;-59
2023/01/20 06:05:40;;;;;;;1.30;1.30;;;;;-3.40;95481.00;;;;5017622;28;20205;-59
2023/01/20 06:08:07;;;;;;;1.57;1.47;;;;;-3.40;95490.00;;;;5035513;28;20252;-59
2023/01/20 06:10:35;;;;;;;1.27;1.27;;;;;-3.40;95493.00;;;;5035373;28;20200;-59
2023/01/20 06:13:02;;;;;;;1.33;1.30;;;;;-3.40;95495.00;;;;5017355;28;20764;-60
2023/01/20 06:15:29;;;;;;;1.50;1.40;;;;;-3.40;95495.00;;;;5035693;28;20241;-58
2023/01/20 06:17:57;;;;;;;2.47;2.27;;;;;-3.50;95491.00;;;;5035349;28;20227;-59
2023/01/20 06:20:24;;;;;;;1.20;1.20;;;;;-3.50;95492.00;;;;5035154;28;20202;-58
2023/01/20 06:22:56;;;;;;;1.27;1.27;;;;;-3.70;95497.00;;;;5035026;28;20277;-59
2023/01/20 06:25:23;;;;;;;4.13;2.00;;;;;-3.70;95501.00;;;;5035673;28;20187;-57
2023/01/20 06:27:51;;;;;;;1.50;1.40;;;;;-3.80;95501.00;;;;5035030;28;20706;-59
2023/01/20 06:30:19;;;;;;;1.43;1.33;;;;;-3.70;95508.00;;;;5034130;28;20199;-59
2023/01/20 06:32:47;;;;;;;1.40;1.37;;;;;-3.70;95517.00;;;;5035410;28;20196;-59
2023/01/20 06:35:15;;;;;;;2.13;1.87;;;;;-3.80;95510.00;;;;5034883;28;20279;-60
2023/01/20 06:37:42;;;;;;;1.37;1.27;;;;;-3.80;95515.00;;;;5034884;28;20227;-57
2023/01/20 06:40:13;;;;;;;3.33;2.20;;;;;-3.70;95524.00;;;;5034984;28;20674;-57
2023/01/20 06:42:41;;;;;;;2.30;2.10;;;;;-3.70;95528.00;;;;5034664;28;20187;-58
2023/01/20 06:45:10;;;;;;;1.07;1.07;;;;;-3.80;95532.00;;;;5034680;28;20666;-58
2023/01/20 06:47:37;;;;;;;1.97;1.87;;;;;-3.90;95530.00;;;;5034689;28;20196;-59
2023/01/20 06:50:05;;;;;;;1.30;1.20;;;;;-3.90;95523.00;;;;5034818;28;20659;-59
2023/01/20 06:52:33;;;;;;;10.40;1.40;;;;;-3.80;95534.00;;;;5034790;28;20558;-59
2023/01/20 06:55:00;;;;;;;1.63;1.53;;;;;-3.90;95540.00;;;;5035081;28;20652;-58
2023/01/20 06:57:29;;;;;;;1.43;1.33;;;;;-4.00;95544.00;;;;5034479;28;20218;-58
2023/01/20 06:59:57;;;;;;;1.40;1.30;;;;;-4.00;95541.00;;;;5016733;28;20743;-59
2023/01/20 07:02:25;;;;;;;1.30;1.30;;;;;-4.00;95536.00;;;;5034402;28;20284;-59
2023/01/20 07:04:52;;;;;;;1.30;1.30;;;;;-3.90;95551.00;;;;5034312;28;20733;-59
2023/01/20 07:07:20;;;;;;;1.80;1.70;;;;;-4.00;95558.00;;;;5032793;28;20251;-59
2023/01/20 07:09:47;;;;;;;0.97;0.97;;;;;-4.00;95560.00;;;;5034983;28;20205;-59
2023/01/20 07:12:14;;;;;;;1.10;1.10;;;;;-3.90;95555.00;;;;5047248;28;20561;-59
2023/01/20 07:14:43;;;;;;;2.83;2.00;;;;;-4.00;95560.00;;;;5051933;28;20272;-59
2023/01/20 07:17:12;;;;;;;1.40;1.40;;;;;-3.90;95574.00;;;;5051127;28;20711;-59
2023/01/20 07:19:40;;;;;;;2.70;2.00;;;;;-3.90;95572.00;;;;5037592;28;20218;-59
2023/01/20 07:22:07;;;;;;;3.47;1.97;;;;;-3.20;95569.00;;;;5031502;28;20203;-59
2023/01/20 07:24:35;;;;;;;2.80;2.17;;;;;-3.10;95577.00;;;;5032537;28;20223;-59
2023/01/20 07:27:02;;;;;;;2.87;2.67;;;;;-3.20;95579.00;;;;5040618;28;20256;-58
2023/01/20 07:29:30;;;;;;;1.20;1.20;;;;;-3.30;95586.00;;;;5046692;28;20227;-57
2023/01/20 07:31:58;;;;;;;2.77;2.57;;;;;-3.40;95593.00;;;;5031272;28;20231;-58
2023/01/20 07:34:26;;;;;;;2.67;2.03;;;;;-3.40;95602.00;;;;5031234;28;20254;-58
2023/01/20 07:36:53;;;;;;;2.67;2.47;;;;;-3.50;95610.00;;;;5031378;28;20219;-59
2023/01/20 07:39:21;;;;;;;7.50;3.13;;;;;-3.40;95605.00;;;;5035097;28;20196;-59
2023/01/20 07:41:49;;;;;;;3.73;3.43;;;;;-3.40;95607.00;;;;5051149;28;20202;-59
2023/01/20 07:44:16;;;;;;;3.93;2.93;;;;;-3.40;95609.00;;;;5033452;28;20346;-60
2023/01/20 07:46:44;;;;;;;7.43;4.83;;;;;-3.40;95604.00;;;;5033660;28;20207;-59
2023/01/20 07:49:13;;;;;;;5.17;4.03;;;;;-3.40;95612.00;;;;5027019;28;20559;-59
2023/01/20 07:51:42;;;;;;;6.57;4.83;;;;;-3.30;95633.00;;;;5029785;28;20204;-60
2023/01/20 07:54:11;;;;;;;5.83;4.70;;;;;-3.30;95615.00;;;;5031185;28;20663;-59
2023/01/20 07:56:38;;;;;;;4.67;4.27;;;;;-3.30;95626.00;;;;5029423;28;20209;-59
2023/01/20 07:59:05;;;;;;;3.93;3.50;;;;;-3.30;95626.00;;;;5031091;28;20202;-58
2023/01/20 08:01:33;;;;;;;3.57;3.37;;;;;-3.30;95634.00;;;;5030329;28;20410;-59
2023/01/20 08:04:01;;;;;;;4.00;3.70;;;;;-3.40;95636.00;;;;5030237;28;20227;-59
2023/01/20 08:06:30;;;;;;;3.93;3.30;;;;;-3.30;95637.00;;;;5030612;28;20709;-59
2023/01/20 08:09:01;;;;;;;4.70;3.07;;;;;-3.30;95651.00;;;;5050562;28;20196;-59
2023/01/20 08:11:30;;;;;;;5.77;3.60;;;;;-3.30;95639.00;;;;5050534;28;20254;-58
2023/01/20 08:13:58;;;;;;;5.60;4.27;;;;;-3.30;95646.00;;;;5050142;28;20731;-58
2023/01/20 08:16:25;;;;;;;4.60;3.33;;;;;-3.30;95645.00;;;;5050411;28;20199;-59
2023/01/20 08:18:54;;;;;;;3.10;2.90;;;;;-3.30;95652.00;;;;5050395;28;20219;-59
2023/01/20 08:21:23;;;;;;;2.33;2.13;;;;;-3.30;95661.00;;;;5050294;28;20281;-58
2023/01/20 08:23:54;;;;;;;2.70;2.37;;;;;-3.20;95650.00;;;;5050368;28;20268;-59
2023/01/20 08:26:23;;;;;;;2.27;2.13;;;;;-3.20;95665.00;;;;5050430;28;20188;-59
2023/01/20 08:28:52;;;;;;;1.93;1.83;;;;;-3.10;95658.00;;;;5050364;28;20742;-60
2023/01/20 08:31:22;;;;;;;3.90;2.90;;;;;-3.20;95669.00;;;;5050380;28;20677;-59
2023/01/20 08:33:53;;;;;;;4.70;2.47;;;;;-3.10;95665.00;;;;5050340;28;20227;-59
2023/01/20 08:36:23;;;;;;;3.90;3.57;;;;;-3.10;95672.00;;;;5050769;28;20274;-59
2023/01/20 08:38:52;;;;;;;4.20;3.87;;;;;-2.90;95673.00;;;;5049928;28;20713;-59
2023/01/20 08:41:22;;;;;;;3.20;2.90;;;;;-2.80;95677.00;;;;5037142;28;20670;-59
2023/01/20 08:43:50;;;;;;;3.47;3.27;;;;;-2.90;95680.00;;;;5030613;28;20219;-59
2023/01/20 08:46:20;;;;;;;2.17;2.00;;;;;-2.60;95693.00;;;;5050375;28;20204;-59
2023/01/20 08:48:48;;;;;;;4.67;3.23;;;;;-2.50;95693.00;;;;5049779;28;20256;-58
2023/01/20 08:51:18;;;;;;;3.20;1.93;;;;;-2.40;95698.00;;;;5050370;28;20720;-58
2023/01/20 08:53:45;;;;;;;1.87;1.77;;;;;-2.30;95699.00;;;;5049921;28;20218;-58
2023/01/20 08:56:16;;;;;;;1.20;1.20;;;;;-2.20;95689.00;;;;5049339;28;20278;-58
2023/01/20 08:58:44;;;;;;;5.13;2.00;;;;;-2.10;95697.00;;;;5034609;28;20590;-58
2023/01/20 09:01:13;;;;;;;1.77;1.67;;;;;-2.00;95690.00;;;;5053587;28;20646;-58
2023/01/20 09:03:40;;;;;;;3.70;1.53;;;;;-2.10;95701.00;;;;5053406;28;20677;-58
2023/01/20 09:06:09;;;;;;;1.43;1.40;;;;;-2.10;95698.00;;;;5031120;28;20200;-58
2023/01/20 09:08:36;;;;;;;3.03;2.30;;;;;-2.00;95708.00;;;;5034238;28;20548;-58
2023/01/20 09:11:05;;;;;;;1.83;1.73;;;;;-1.90;95709.00;;;;5035311;28;20283;-58
2023/01/20 09:13:35;;;;;;;1.20;1.20;;;;;-1.80;95715.00;;;;5035611;28;20235;-58
2023/01/20 09:16:03;;;;;;;2.43;2.13;;;;;-2.00;95708.00;;;;5053803;28;20204;-59
2023/01/20 09:18:31;;;;;;;1.37;1.33;;;;;-2.00;95724.00;;;;5053677;28;20255;-58
2023/01/20 09:21:00;;;;;;;1.60;1.50;;;;;-1.80;95716.00;;;;5031688;28;20224;-58
2023/01/20 09:23:28;;;;;;;1.90;1.80;;;;;-1.70;95714.00;;;;5033730;28;20292;-59
2023/01/20 09:25:58;;;;;;;2.03;1.53;;;;;-1.60;95708.00;;;;5034047;28;20272;-59
2023/01/20 09:28:26;;;;;;;1.23;1.23;;;;;-1.40;95716.00;;;;5041461;28;20201;-59
2023/01/20 09:30:59;;;;;;;2.93;2.10;;;;;-1.40;95723.00;;;;5048552;28;20280;-59
2023/01/20 09:33:27;;;;;;;1.03;1.03;;;;;-1.30;95721.00;;;;5053480;28;20234;-59
2023/01/20 09:35:55;;;;;;;2.67;2.50;;;;;-1.30;95719.00;;;;5035572;28;20644;-59
2023/01/20 09:44:17;;;;;;;8.23;2.27;;;;;-1.40;95738.00;;;;5035497;28;20650;-58
2023/01/20 09:53:04;;;;;;;1.20;1.20;;;;;-1.40;95736.00;;;;5053373;28;20220;-58
2023/01/20 09:55:41;;;;;;;1.67;1.53;;;;;-1.10;95735.00;;;;5049183;28;20242;-58
2023/01/20 09:58:18;;;;;;;2.43;1.37;;;;;-1.00;95741.00;;;;5053237;28;20723;-58
2023/01/20 10:00:51;;;;;;;1.37;1.27;;;;;-0.70;95749.00;;;;5049154;28;20218;-58
2023/01/20 10:03:28;;;;;;;1.97;1.87;;;;;-0.60;95744.00;;;;5052422;28;20703;-58
2023/01/20 10:05:58;;;;;;;1.37;1.27;;;;;-0.50;95751.00;;;;5051951;28;20223;-58
2023/01/20 10:08:33;;;;;;;3.53;2.10;;;;;-0.50;95755.00;;;;5042873;28;20196;-59
2023/01/20 10:11:07;;;;;;;1.53;1.43;;;;;-0.60;95751.00;;;;5049020;28;20191;-60
2023/01/20 10:13:45;;;;;;;1.10;1.10;;;;;-0.70;95753.00;;;;5052553;28;20235;-59
2023/01/20 10:16:23;;;;;;;1.73;1.63;;;;;-0.70;95746.00;;;;5052809;28;20199;-59
2023/01/20 10:18:57;;;;;;;1.10;1.10;;;;;-0.50;95746.00;;;;5052648;28;20215;-59
2023/01/20 10:21:32;;;;;;;0.67;0.67;;;;;-0.30;95752.00;;;;5052662;28;20246;-59
2023/01/20 10:24:04;;;;;;;1.33;1.30;;;;;-0.10;95761.00;;;;5028201;28;20227;-60
2023/01/20 10:26:42;;;;;;;1.80;1.73;;;;;0.00;95755.00;;;;5032729;28;20193;-59
2023/01/20 10:29:15;;;;;;;2.43;2.10;;;;;0.30;95759.00;;;;5032532;28;20551;-59
2023/01/20 10:31:48;;;;;;;2.10;2.00;;;;;0.60;95748.00;;;;5032949;28;20208;-59
2023/01/20 10:34:21;;;;;;;2.20;2.00;;;;;1.30;95764.00;;;;5032474;28;20226;-59
2023/01/20 10:36:54;;;;;;;1.83;1.73;;;;;1.50;95761.00;;;;5031464;28;20194;-59
2023/01/20 10:39:30;;;;;;;3.83;2.27;;;;;1.80;95760.00;;;;5046153;28;20297;-59
2023/01/20 10:42:04;;;;;;;3.20;2.63;;;;;1.90;95758.00;;;;5052392;28;20197;-59
2023/01/20 10:44:35;;;;;;;2.37;2.17;;;;;2.10;95756.00;;;;5052172;28;20221;-59
2023/01/20 10:47:19;;;;;;;1.93;1.83;;;;;2.20;95757.00;;;;5052191;28;20199;-59
2023/01/20 10:50:05;;;;;;;1.83;1.73;;;;;2.40;95752.00;;;;5051852;28;20186;-58
2023/01/20 10:52:46;;;;;;;3.53;2.17;;;;;2.50;95755.00;;;;5052392;28;20206;-59
2023/01/20 10:55:24;;;;;;;1.43;1.40;;;;;2.90;95751.00;;;;5014440;28;20643;-59
2023/01/20 10:57:56;;;;;;;1.20;1.20;;;;;3.00;95759.00;;;;5032376;28;20191;-59
2023/01/20 11:00:27;;;;;;;6.77;2.37;;;;;3.30;95757.00;;;;5031753;28;20341;-59
2023/01/20 11:02:55;;;;;;;1.83;1.73;;;;;3.30;95763.00;;;;5032312;28;20702;-59
2023/01/20 11:05:29;;;;;;;1.27;1.27;;;;;3.40;95757.00;;;;5030752;28;20208;-59
2023/01/20 11:07:58;;;;;;;4.03;2.10;;;;;3.30;95760.00;;;;5032284;28;20196;-59
2023/01/20 11:10:28;;;;;;;1.70;1.60;;;;;3.80;95759.00;;;;5031935;28;20211;-59
2023/01/20 11:12:58;;;;;;;2.30;2.10;;;;;4.30;95746.00;;;;5031494;28;20227;-59
2023/01/20 11:15:28;;;;;;;3.10;1.60;;;;;4.70;95762.00;;;;5031515;28;20200;-60
2023/01/20 11:18:36;;;;;;;2.37;2.27;;;;;3.90;95740.00;;;;5031548;28;20710;-60
2023/01/20 11:21:07;;;;;;;1.60;1.57;;;;;4.30;95744.00;;;;5027054;28;20204;-60
2023/01/20 11:23:40;;;;;;;1.50;1.43;;;;;3.70;95733.00;;;;5031668;28;20216;-59
2023/01/20 11:26:17;;;;;;;1.10;1.10;;;;;3.60;95751.00;;;;5031456;28;20213;-60
2023/01/20 11:28:49;;;;;;;1.23;1.23;;;;;3.20;95767.00;;;;5014097;28;20199;-60
2023/01/20 11:31:17;;;;;;;1.17;1.17;;;;;3.10;95740.00;;;;5029888;28;20197;-59
2023/01/20 11:33:57;;;;;;;0.90;0.83;;;;;2.60;95756.00;;;;5030589;28;20228;-63
2023/01/20 11:36:26;;;;;;;1.03;1.03;;;;;3.00;95722.00;;;;5031949;28;20192;-62
2023/01/20 11:38:55;;;;;;;1.97;1.87;;;;;4.00;95719.00;;;;5026890;28;20294;-61
2023/01/20 11:41:25;;;;;;;3.70;1.43;;;;;4.20;95708.00;;;;5031249;28;20549;-60
2023/01/20 11:43:56;;;;;;;1.43;1.10;;;;;5.10;95714.00;;;;5030958;28;20212;-61
2023/01/20 11:46:27;;;;;;;1.37;1.30;;;;;5.60;95717.00;;;;5031075;28;20550;-62
2023/01/20 11:49:14;;;;;;;0.97;0.97;;;;;5.10;95718.00;;;;5031389;28;20185;-58
2023/01/20 11:51:51;;;;;;;1.20;1.20;;;;;5.00;95685.00;;;;5031190;28;20197;-59
2023/01/20 11:54:22;;;;;;;3.10;1.33;;;;;7.10;95697.00;;;;5027062;28;20237;-57
2023/01/20 11:56:53;;;;;;;0.83;0.83;;;;;7.70;95689.00;;;;5031388;28;20203;-57
2023/01/20 11:59:28;;;;;;;1.13;1.13;;;;;9.10;95689.00;;;;5037210;28;20207;-59
2023/01/20 12:02:00;;;;;;;0.70;0.70;;;;;8.90;95684.00;;;;5051200;28;20214;-58
2023/01/20 12:04:49;;;;;;;0.77;0.77;;;;;9.10;95774.00;;;;5050254;28;20290;-59
2023/01/20 12:07:25;;;;;;;0.90;0.90;;;;;8.30;95681.00;;;;5051107;28;20190;-59
2023/01/20 12:09:57;;;;;;;0.83;0.83;;;;;11.40;95680.00;;;;5050004;28;20191;-59
2023/01/20 12:12:32;;;;;;;1.30;1.23;;;;;8.80;95689.00;;;;5051073;28;20249;-59
2023/01/20 12:15:05;;;;;;;1.00;1.00;;;;;8.10;95762.00;;;;5050306;28;20210;-58
2023/01/20 12:17:45;;;;;;;0.80;0.80;;;;;6.50;95791.00;;;;5051662;28;20189;-59
2023/01/20 12:20:23;;;;;;;1.00;1.00;;;;;5.20;95783.00;;;;5047152;28;20214;-59
2023/01/20 12:23:13;;;;;;;1.13;1.13;;;;;4.30;95796.00;;;;5050599;28;20246;-59
2023/01/20 12:25:56;;;;;;;0.80;0.80;;;;;3.90;95804.00;;;;5048461;28;20193;-59
2023/01/20 12:28:29;;;;;;;5.70;1.53;;;;;3.70;95786.00;;;;5050161;28;20188;-60
2023/01/20 12:30:59;;;;;;;0.80;0.80;;;;;4.80;95757.00;;;;5050087;28;20204;-60
2023/01/20 12:33:30;;;;;;;1.00;1.00;;;;;7.80;95728.00;;;;5050755;28;20217;-59
2023/01/20 12:36:20;;;;;;;0.70;0.70;;;;;10.00;95707.00;;;;5035845;28;20192;-59
2023/01/20 12:39:07;;;;;;;0.87;0.87;;;;;10.40;95767.00;;;;5050694;28;20254;-59
2023/01/20 12:41:55;;;;;;;0.77;0.77;;;;;8.50;95799.00;;;;5026899;28;20597;-59
2023/01/20 12:44:27;;;;;;;0.60;0.60;;;;;7.00;95807.00;;;;5035005;28;20223;-58
2023/01/20 12:47:03;;;;;;;0.90;0.90;;;;;6.10;95818.00;;;;5030376;28;20247;-59